Time;durP1;ratioP1;P1;durP2;ratioP2;P2;SDS_P1;SDS_P2;PMS_P1;PMS_P2;Temp;Humidity;BMP_temperature;BMP_pressure;BME280_temperature;BME280_humidity;BME280_pressure;Samples;Min_cycle;Max_cycle;Signal;HPM_P1;HPM_P2
2022/05/13 00:01:54;;;;;;;6.93;2.05;;;;;;;9.63;100.00;100849.53;5026660;28;20021;-59
2022/05/13 00:04:20;;;;;;;3.97;1.95;;;;;;;9.51;100.00;100855.25;5025066;28;20870;-59
2022/05/13 00:06:46;;;;;;;5.38;2.05;;;;;;;9.43;100.00;100849.47;5025598;28;20033;-59
2022/05/13 00:09:11;;;;;;;10.05;2.15;;;;;;;9.37;100.00;100862.78;5025296;28;21018;-59
2022/05/13 00:11:37;;;;;;;5.85;1.88;;;;;;;9.28;100.00;100853.50;5025002;28;20028;-59
2022/05/13 00:14:03;;;;;;;5.18;1.67;;;;;;;9.10;100.00;100834.06;5025239;28;20241;-59
2022/05/13 00:16:29;;;;;;;4.45;1.98;;;;;;;8.87;100.00;100818.34;5027426;28;20028;-59
2022/05/13 00:18:54;;;;;;;4.18;1.80;;;;;;;8.88;100.00;100833.16;5028895;28;20084;-59
2022/05/13 00:21:20;;;;;;;4.38;2.17;;;;;;;8.88;100.00;100846.25;5028611;28;20950;-59
2022/05/13 00:23:45;;;;;;;4.18;1.95;;;;;;;8.80;100.00;100840.41;5030027;28;20131;-59
2022/05/13 00:26:11;;;;;;;11.35;2.90;;;;;;;8.68;100.00;100840.88;5028684;28;20938;-59
2022/05/13 00:28:36;;;;;;;3.20;1.75;;;;;;;8.59;100.00;100841.16;5029035;28;20024;-59
2022/05/13 00:31:04;;;;;;;4.78;1.77;;;;;;;8.37;100.00;100819.28;5028761;28;20743;-59
2022/05/13 00:33:30;;;;;;;5.88;2.05;;;;;;;8.53;100.00;100850.09;5012873;28;20938;-59
2022/05/13 00:35:57;;;;;;;5.47;2.20;;;;;;;8.47;100.00;100839.84;5011082;28;20090;-59
2022/05/13 00:38:22;;;;;;;9.48;2.00;;;;;;;8.45;100.00;100844.28;5029891;28;20912;-59
2022/05/13 00:40:48;;;;;;;5.00;2.03;;;;;;;8.40;100.00;100837.50;5028019;28;20028;-59
2022/05/13 00:43:42;;;;;;;3.88;1.70;;;;;;;8.45;100.00;100848.69;5028563;28;20028;-59
2022/05/13 00:46:08;;;;;;;5.78;2.33;;;;;;;8.23;100.00;100796.16;5028697;28;20042;-59
2022/05/13 00:48:33;;;;;;;5.82;2.25;;;;;;;8.34;100.00;100798.44;5029286;28;21008;-59
2022/05/13 00:50:59;;;;;;;4.10;2.00;;;;;;;8.59;100.00;100809.75;5028377;28;20058;-59
2022/05/13 00:53:24;;;;;;;4.10;2.00;;;;;;;8.86;100.00;100829.72;5029595;28;20869;-59
2022/05/13 00:55:50;;;;;;;5.93;1.70;;;;;;;8.99;100.00;100825.72;5030223;28;20886;-58
2022/05/13 00:58:20;;;;;;;4.18;1.85;;;;;;;8.86;100.00;100793.03;5029485;28;20136;-59
2022/05/13 01:00:46;;;;;;;3.10;1.15;;;;;;;9.18;100.00;100837.28;5028889;28;20036;-59
2022/05/13 01:03:12;;;;;;;3.35;1.40;;;;;;;9.21;100.00;100836.28;5010460;28;20982;-59
2022/05/13 01:05:41;;;;;;;3.33;1.60;;;;;;;9.20;100.00;100838.06;5028304;28;20118;-59
2022/05/13 01:08:07;;;;;;;4.93;2.28;;;;;;;9.15;100.00;100837.38;5011897;28;20027;-59
2022/05/13 01:10:34;;;;;;;7.68;1.42;;;;;;;9.11;100.00;100834.91;5012203;28;20028;-59
2022/05/13 01:13:00;;;;;;;3.63;1.38;;;;;;;9.04;100.00;100829.06;5029348;28;20900;-59
2022/05/13 01:15:37;;;;;;;5.63;1.80;;;;;;;9.03;100.00;100842.19;5010175;28;20028;-59
2022/05/13 01:18:06;;;;;;;5.03;1.90;;;;;;;8.97;100.00;100832.81;5012520;28;20024;-59
2022/05/13 01:20:38;;;;;;;6.82;1.38;;;;;;;9.10;100.00;100839.31;5028032;28;20059;-59
2022/05/13 01:23:09;;;;;;;4.78;1.58;;;;;;;9.21;100.00;100852.03;5027728;28;20032;-59
2022/05/13 01:25:39;;;;;;;6.22;1.88;;;;;;;9.21;100.00;100838.91;5028311;28;20137;-59
2022/05/13 01:28:17;;;;;;;4.65;1.67;;;;;;;9.31;100.00;100847.28;5010420;28;20954;-59
2022/05/13 01:30:46;;;;;;;6.50;1.40;;;;;;;9.34;100.00;100847.16;5011391;28;20032;-58
2022/05/13 01:33:12;;;;;;;4.47;1.52;;;;;;;9.41;100.00;100846.88;5027127;28;20139;-59
2022/05/13 01:35:42;;;;;;;2.72;1.20;;;;;;;9.39;100.00;100845.22;5027748;28;20043;-59
2022/05/13 01:38:09;;;;;;;2.75;1.30;;;;;;;9.44;100.00;100849.38;5027685;28;20040;-58
2022/05/13 01:40:34;;;;;;;3.72;1.77;;;;;;;9.17;100.00;100809.34;5028148;28;20033;-59
2022/05/13 01:43:00;;;;;;;4.65;1.63;;;;;;;9.26;100.00;100817.78;5027210;28;20876;-58
2022/05/13 01:45:25;;;;;;;4.72;1.60;;;;;;;9.37;100.00;100829.53;5027995;28;20032;-59
2022/05/13 01:47:50;;;;;;;4.00;1.83;;;;;;;9.48;100.00;100850.13;5027502;28;20032;-59
2022/05/13 01:50:16;;;;;;;4.10;1.33;;;;;;;9.48;100.00;100850.97;5027413;28;20871;-59
2022/05/13 01:52:41;;;;;;;5.53;2.03;;;;;;;9.53;100.00;100853.44;5027546;28;20021;-59
2022/05/13 01:55:07;;;;;;;5.07;1.80;;;;;;;9.58;100.00;100852.34;5029053;28;20147;-59
2022/05/13 01:57:32;;;;;;;7.70;1.85;;;;;;;9.58;100.00;100854.09;5009726;28;21018;-59
2022/05/13 01:59:58;;;;;;;5.97;1.40;;;;;;;9.53;100.00;100853.44;5028638;28;20028;-59
2022/05/13 02:02:23;;;;;;;11.70;2.08;;;;;;;9.52;100.00;100843.84;5037919;28;20945;-59
2022/05/13 02:04:51;;;;;;;3.60;1.70;;;;;;;9.54;100.00;100850.75;5046117;28;20078;-59
2022/05/13 02:07:17;;;;;;;16.27;2.00;;;;;;;9.58;100.00;100852.34;5046849;28;20024;-59
2022/05/13 02:09:43;;;;;;;4.93;1.85;;;;;;;9.38;100.00;100833.03;5046776;28;20028;-59
2022/05/13 02:12:08;;;;;;;5.38;1.60;;;;;;;9.27;100.00;100801.09;5046911;28;20035;-59
2022/05/13 02:14:34;;;;;;;3.55;1.48;;;;;;;9.58;100.00;100838.34;5037954;28;20021;-59
2022/05/13 02:16:59;;;;;;;5.78;2.17;;;;;;;9.64;100.00;100859.09;5009359;28;20032;-58
2022/05/13 02:19:25;;;;;;;4.63;1.88;;;;;;;9.55;100.00;100843.72;5026698;28;20123;-59
2022/05/13 02:21:50;;;;;;;11.90;2.00;;;;;;;9.56;100.00;100853.31;5026461;28;20040;-59
2022/05/13 02:24:16;;;;;;;13.63;1.80;;;;;;;9.57;100.00;100858.47;5027933;28;20067;-59
2022/05/13 02:26:41;;;;;;;7.63;2.72;;;;;;;9.54;100.00;100857.75;5027284;28;20782;-59
2022/05/13 02:29:06;;;;;;;3.88;1.80;;;;;;;9.58;100.00;100862.81;5026732;28;20147;-58
2022/05/13 02:31:32;;;;;;;6.53;1.85;;;;;;;9.51;100.00;100855.25;5028135;28;20029;-59
2022/05/13 02:33:58;;;;;;;5.35;2.10;;;;;;;9.44;100.00;100848.53;5028621;28;20208;-59
2022/05/13 02:36:24;;;;;;;5.05;1.75;;;;;;;9.59;100.00;100872.41;5027771;28;20028;-58
2022/05/13 02:38:50;;;;;;;6.72;2.38;;;;;;;9.46;100.00;100862.44;5026269;28;20038;-58
2022/05/13 02:41:15;;;;;;;5.03;1.85;;;;;;;9.48;100.00;100858.84;5028522;28;20040;-59
2022/05/13 02:43:45;;;;;;;8.32;1.98;;;;;;;9.50;100.00;100872.75;5026076;28;20020;-59
2022/05/13 02:46:11;;;;;;;5.18;1.67;;;;;;;9.53;100.00;100869.19;5027079;28;20131;-59
2022/05/13 02:48:37;;;;;;;11.00;1.98;;;;;;;9.56;100.00;100871.69;5026830;28;20036;-59
2022/05/13 02:51:02;;;;;;;6.47;1.95;;;;;;;9.52;100.00;100868.31;5027261;28;20125;-59
2022/05/13 02:53:28;;;;;;;5.47;2.25;;;;;;;9.52;100.00;100856.97;5027553;28;20844;-59
2022/05/13 02:55:53;;;;;;;7.40;2.55;;;;;;;9.63;100.00;100857.41;5027856;28;20028;-59
2022/05/13 02:58:19;;;;;;;4.40;1.58;;;;;;;9.67;100.00;100866.84;5029025;28;20031;-59
2022/05/13 03:00:44;;;;;;;5.50;2.15;;;;;;;9.70;100.00;100856.22;5013305;28;20032;-59
2022/05/13 03:03:11;;;;;;;11.23;2.63;;;;;;;9.72;100.00;100862.28;5031654;28;20864;-59
2022/05/13 03:05:37;;;;;;;10.57;3.47;;;;;;;9.68;100.00;100852.81;5033173;28;20028;-59
2022/05/13 03:08:03;;;;;;;8.90;2.17;;;;;;;9.43;100.00;100825.84;5036918;28;20036;-59
2022/05/13 03:10:30;;;;;;;8.35;1.77;;;;;;;9.62;100.00;100853.94;5036990;28;20137;-59
2022/05/13 03:12:56;;;;;;;5.72;2.05;;;;;;;9.65;100.00;100859.06;5036233;28;20032;-58
2022/05/13 03:15:21;;;;;;;5.20;2.55;;;;;;;9.60;100.00;100850.50;5038999;28;20136;-59
2022/05/13 03:17:47;;;;;;;7.80;2.38;;;;;;;9.56;100.00;100850.69;5039161;28;20040;-58
2022/05/13 03:20:17;;;;;;;9.30;2.38;;;;;;;9.18;100.00;100790.06;5038779;28;20028;-58
2022/05/13 03:22:43;;;;;;;9.93;2.70;;;;;;;9.44;100.00;100838.03;5058599;28;20025;-59
2022/05/13 03:25:08;;;;;;;6.45;2.38;;;;;;;9.44;100.00;100848.53;5042495;28;20131;-59
2022/05/13 03:27:34;;;;;;;12.40;3.33;;;;;;;9.31;100.00;100828.94;5046715;28;20028;-59
2022/05/13 03:29:59;;;;;;;6.95;2.30;;;;;;;9.37;100.00;100852.28;5044702;28;20073;-59
2022/05/13 03:32:25;;;;;;;6.15;2.35;;;;;;;9.31;100.00;100850.75;5040937;28;20031;-59
2022/05/13 03:34:50;;;;;;;7.85;2.22;;;;;;;9.27;100.00;100843.06;5042869;28;20598;-60
2022/05/13 03:37:15;;;;;;;17.17;2.72;;;;;;;9.26;100.00;100854.47;5043539;28;20021;-59
2022/05/13 03:39:41;;;;;;;4.90;2.35;;;;;;;9.24;100.00;100857.16;5041205;28;20833;-59
2022/05/13 03:42:07;;;;;;;4.47;2.08;;;;;;;9.22;100.00;100853.75;4992295;28;1496421;-59
2022/05/13 03:44:32;;;;;;;8.02;2.80;;;;;;;9.21;100.00;100854.63;5042328;28;20041;-59
2022/05/13 03:46:59;;;;;;;13.95;3.03;;;;;;;9.18;100.00;100847.75;5047537;28;20025;-59
2022/05/13 03:49:25;;;;;;;6.15;2.65;;;;;;;9.19;100.00;100843.38;5039816;28;20024;-59
2022/05/13 03:51:50;;;;;;;9.73;2.53;;;;;;;9.15;100.00;100841.78;5044855;28;20025;-59
2022/05/13 03:54:15;;;;;;;4.93;2.22;;;;;;;9.17;100.00;100846.03;5049292;28;20027;-59
2022/05/13 03:56:41;;;;;;;10.55;3.35;;;;;;;9.14;100.00;100856.63;5049020;28;20020;-59
2022/05/13 03:59:06;;;;;;;7.18;3.03;;;;;;;9.08;100.00;100856.88;5047662;28;20928;-59
2022/05/13 04:01:32;;;;;;;6.72;2.55;;;;;;;9.09;100.00;100857.72;5049430;28;20020;-59
2022/05/13 04:03:57;;;;;;;7.85;2.40;;;;;;;9.08;100.00;100867.34;5048292;28;20064;-59
2022/05/13 04:09:07;;;;;;;12.33;2.90;;;;;;;9.09;100.00;100863.81;5034824;28;20098;-59
2022/05/13 04:11:36;;;;;;;7.82;3.17;;;;;;;9.08;100.00;100862.13;5031155;28;20710;-59
2022/05/13 04:16:47;;;;;;;8.48;3.10;;;;;;;9.08;100.00;100869.97;5036962;28;20856;-59
2022/05/13 04:19:13;;;;;;;7.97;3.50;;;;;;;9.06;100.00;100865.69;5036701;28;20036;-60
2022/05/13 04:21:39;;;;;;;10.32;3.88;;;;;;;9.03;100.00;100869.28;5039709;28;20973;-59
2022/05/13 04:24:07;;;;;;;6.05;2.90;;;;;;;9.00;100.00;100874.63;5039650;28;20054;-59
2022/05/13 04:26:33;;;;;;;7.70;3.42;;;;;;;8.91;100.00;100863.63;5038785;28;20031;-59
2022/05/13 04:29:00;;;;;;;6.68;3.10;;;;;;;8.94;100.00;100874.84;5036656;28;20025;-59
2022/05/13 04:31:27;;;;;;;11.32;3.38;;;;;;;8.91;100.00;100867.09;5033762;28;20083;-59
2022/05/13 04:33:54;;;;;;;7.78;3.17;;;;;;;8.85;100.00;100859.47;5023180;28;20552;-59
2022/05/13 04:36:21;;;;;;;8.82;3.25;;;;;;;8.91;100.00;100874.97;5043790;28;20543;-59
2022/05/13 04:38:46;;;;;;;7.70;3.90;;;;;;;8.66;100.00;100840.06;5035072;28;20134;-59
2022/05/13 04:43:57;;;;;;;13.43;3.28;;;;;;;8.84;100.00;100867.38;5030388;28;20048;-59
2022/05/13 04:46:23;;;;;;;7.30;3.45;;;;;;;8.90;100.00;100870.63;5030998;28;20149;-58
2022/05/13 04:48:49;;;;;;;17.35;3.10;;;;;;;8.92;100.00;100873.22;5030228;28;20090;-59
2022/05/13 04:51:17;;;;;;;6.15;3.13;;;;;;;8.82;100.00;100858.72;5031991;28;20025;-59
2022/05/13 04:53:43;;;;;;;7.00;3.38;;;;;;;8.99;100.00;100878.16;5029967;28;20034;-59
2022/05/13 04:56:09;;;;;;;5.97;3.03;;;;;;;9.03;100.00;100869.28;5029587;28;20032;-59
2022/05/13 04:58:35;;;;;;;10.32;3.83;;;;;;;9.04;100.00;100873.63;5028647;28;20975;-59
2022/05/13 05:01:01;;;;;;;6.65;3.05;;;;;;;9.19;100.00;100891.38;5036167;28;20032;-59
2022/05/13 05:03:28;;;;;;;7.88;4.05;;;;;;;9.28;100.00;100879.72;5031032;28;20035;-59
2022/05/13 05:05:55;;;;;;;8.57;3.53;;;;;;;9.35;100.00;100896.09;5026976;28;20032;-59
2022/05/13 05:08:20;;;;;;;8.48;3.97;;;;;;;9.38;100.00;100895.97;5026980;28;20029;-58
2022/05/13 05:10:46;;;;;;;6.20;3.33;;;;;;;9.47;100.00;100900.84;5028571;28;20036;-58
2022/05/13 05:13:45;;;;;;;8.60;3.88;;;;;;;9.53;100.00;100908.53;5026868;28;20821;-59
2022/05/13 05:16:11;;;;;;;8.13;3.80;;;;;;;9.56;100.00;100900.53;5029184;28;20143;-59
2022/05/13 05:18:37;;;;;;;8.30;3.38;;;;;;;9.56;100.00;100900.53;5028255;28;20031;-59
2022/05/13 05:21:04;;;;;;;5.68;3.15;;;;;;;9.63;100.00;100902.00;5030713;28;20021;-59
2022/05/13 05:23:32;;;;;;;6.78;2.92;;;;;;;9.62;100.00;100900.28;5027764;28;20063;-59
2022/05/13 05:25:58;;;;;;;8.13;3.78;;;;;;;9.66;100.00;100896.66;5011473;28;20024;-59
2022/05/13 05:28:26;;;;;;;9.48;3.75;;;;;;;9.71;100.00;100906.03;5028621;28;20036;-59
2022/05/13 05:30:51;;;;;;;20.92;3.47;;;;;;;9.09;100.00;100795.66;5026896;28;20041;-59
2022/05/13 05:33:17;;;;;;;21.70;5.07;;;;;;;9.72;100.00;100917.41;5028138;28;20350;-59
2022/05/13 05:35:42;;;;;;;7.72;3.53;;;;;;;9.79;100.00;100918.88;5031470;28;20805;-59
2022/05/13 05:38:08;;;;;;;15.90;3.35;;;;;;;9.80;100.00;100925.81;5042158;28;20107;-59
2022/05/13 05:40:35;;;;;;;8.05;3.50;;;;;;;9.84;100.00;100926.56;5029348;28;20052;-59
2022/05/13 05:43:08;;;;;;;9.20;3.30;;;;;;;9.91;100.00;100934.13;5046410;28;20029;-59
2022/05/13 05:45:36;;;;;;;8.85;3.70;;;;;;;9.97;100.00;100944.38;5033799;28;20028;-59
2022/05/13 05:48:01;;;;;;;13.10;3.05;;;;;;;10.05;100.00;100947.59;5026321;28;20034;-59
2022/05/13 05:50:27;;;;;;;11.57;3.55;;;;;;;9.88;100.00;100905.38;5026140;28;20953;-60
2022/05/13 05:52:52;;;;;;;10.07;4.25;;;;;;;10.17;100.00;100941.03;5026988;28;20110;-59
2022/05/13 05:58:06;;;;;;;12.80;3.80;;;;;;;10.30;100.00;100951.91;5027699;28;20106;-59
2022/05/13 06:00:34;;;;;;;6.22;3.35;;;;;;;10.37;100.00;100946.34;5026426;28;20115;-59
2022/05/13 06:03:00;;;;;;;11.85;3.67;;;;;;;10.41;100.00;100934.78;5026275;28;20020;-59
2022/05/13 06:05:26;;;;;;;10.73;3.70;;;;;;;10.41;100.00;100933.94;5026392;28;20924;-59
2022/05/13 06:07:55;;;;;;;9.93;4.00;;;;;;;10.49;100.00;100947.59;5026175;28;20084;-59
2022/05/13 06:10:21;;;;;;;17.33;3.92;;;;;;;10.53;100.00;100957.06;5026373;28;20039;-59
2022/05/13 06:12:46;;;;;;;12.32;4.80;;;;;;;10.59;100.00;100951.56;5026231;28;20021;-59
2022/05/13 06:15:12;;;;;;;8.90;3.80;;;;;;;10.64;100.00;100952.25;5026105;28;20907;-59
2022/05/13 06:17:48;;;;;;;9.95;3.78;;;;;;;10.68;100.00;100954.66;5026107;28;20057;-59
2022/05/13 06:20:15;;;;;;;9.85;4.00;;;;;;;10.77;100.00;100971.84;5041611;28;20132;-59
2022/05/13 06:22:41;;;;;;;8.00;3.80;;;;;;;10.77;100.00;100961.31;5008386;28;20133;-59
2022/05/13 06:25:08;;;;;;;24.15;4.28;;;;;;;10.83;100.00;100962.81;5025974;28;20028;-59
2022/05/13 06:27:34;;;;;;;9.90;3.53;;;;;;;10.71;100.00;100949.28;5026797;28;20035;-59
2022/05/13 06:29:59;;;;;;;11.77;3.75;;;;;;;10.82;100.00;100972.47;5031634;28;20032;-59
2022/05/13 06:32:25;;;;;;;9.98;4.15;;;;;;;11.02;100.00;100995.31;5037399;28;20028;-59
2022/05/13 06:34:50;;;;;;;13.98;4.75;;;;;;;11.12;100.00;100986.97;5025742;28;20028;-59
2022/05/13 06:37:15;;;;;;;12.98;4.13;;;;;;;11.21;100.00;100981.31;5026180;28;20241;-59
2022/05/13 06:39:41;;;;;;;7.15;3.63;;;;;;;11.16;100.00;100958.75;5025958;28;20077;-59
2022/05/13 06:42:06;;;;;;;14.23;4.85;;;;;;;11.39;100.00;100976.19;5039821;28;20036;-59
2022/05/13 06:44:32;;;;;;;11.55;3.35;;;;;;;11.48;100.00;100975.75;5046859;28;20040;-59
2022/05/13 06:46:57;;;;;;;8.38;3.63;;;;;;;11.50;100.00;100993.19;5030315;28;20082;-59
2022/05/13 06:49:22;;;;;;;14.32;4.65;;;;;;;11.54;100.00;100991.28;5046386;28;20032;-59
2022/05/13 06:51:48;;;;;;;12.05;4.38;;;;;;;11.53;100.00;100989.56;5045905;28;20032;-59
2022/05/13 06:54:13;;;;;;;12.40;4.53;;;;;;;11.63;100.00;101002.25;5047182;28;20100;-59
2022/05/13 06:56:41;;;;;;;7.95;4.03;;;;;;;11.48;100.00;100978.41;5043934;28;20048;-59
2022/05/13 06:59:07;;;;;;;13.02;4.20;;;;;;;11.60;100.00;100993.63;5045228;28;20086;-59
2022/05/13 07:01:33;;;;;;;9.30;4.50;;;;;;;11.71;100.00;101001.94;5045494;28;20139;-59
2022/05/13 07:03:59;;;;;;;7.10;4.22;;;;;;;11.60;100.00;100976.06;5046282;28;20032;-59
2022/05/13 07:06:24;;;;;;;21.05;5.03;;;;;;;11.90;100.00;101001.94;5046191;28;20024;-59
2022/05/13 07:08:50;;;;;;;10.02;4.30;;;;;;;11.99;100.00;101004.16;5046290;28;20036;-59
2022/05/13 07:11:19;;;;;;;8.95;4.30;;;;;;;12.06;100.00;100995.91;5046424;28;20020;-59
2022/05/13 07:13:44;;;;;;;7.05;4.00;;;;;;;12.13;100.00;100999.94;5045671;28;20983;-60
2022/05/13 07:16:10;;;;;;;17.92;4.93;;;;;;;12.22;100.00;101002.16;5046023;28;20146;-59
2022/05/13 07:18:36;;;;;;;10.77;4.15;;;;;;;12.23;100.00;100995.94;5045812;28;20067;-59
2022/05/13 07:21:02;;;;;;;16.25;3.63;;;;;;;12.27;100.00;100997.53;5045793;28;20032;-59
2022/05/13 07:23:29;;;;;;;8.13;4.32;;;;;;;12.30;100.00;100992.09;5045791;28;20024;-59
2022/05/13 07:25:55;;;;;;;10.98;4.40;;;;;;;12.36;100.00;100998.03;5045521;28;20137;-59
2022/05/13 07:28:20;;;;;;;15.63;4.63;;;;;;;12.45;100.00;100994.94;5044457;28;20896;-59
2022/05/13 07:30:47;;;;;;;6.80;3.78;;;;;;;12.47;100.00;100998.38;5045899;28;20028;-59
2022/05/13 07:33:13;;;;;;;10.85;4.72;;;;;;;12.42;100.00;101005.63;5044859;28;20024;-59
2022/05/13 07:35:38;;;;;;;8.20;4.13;;;;;;;12.44;100.00;101014.31;5044603;28;20900;-59
2022/05/13 07:38:06;;;;;;;11.48;3.97;;;;;;;12.45;100.00;101001.06;5045244;28;20029;-60
2022/05/13 07:43:16;;;;;;;11.10;4.72;;;;;;;12.57;100.00;101010.19;5034023;28;20055;-59
2022/05/13 07:45:41;;;;;;;17.35;5.45;;;;;;;12.58;100.00;101011.88;5025033;28;20029;-59
2022/05/13 07:48:06;;;;;;;18.27;4.43;;;;;;;12.65;100.00;101015.91;5024930;28;20083;-59
2022/05/13 07:50:32;;;;;;;8.85;4.45;;;;;;;12.47;100.00;100966.75;5024561;28;20028;-59
2022/05/13 07:52:58;;;;;;;10.75;4.15;;;;;;;12.90;100.00;101012.94;5029404;28;20032;-59
2022/05/13 07:55:23;;;;;;;10.07;4.57;;;;;;;12.95;100.00;101010.91;5038031;28;20880;-59
2022/05/13 07:57:49;;;;;;;10.80;4.28;;;;;;;13.03;100.00;101016.66;5042311;28;20876;-59
2022/05/13 08:00:25;;;;;;;8.98;4.20;;;;;;;13.03;100.00;101020.16;5044450;28;20020;-59
2022/05/13 08:03:06;;;;;;;9.90;4.50;;;;;;;13.02;100.00;101013.16;5046789;28;20085;-59
2022/05/13 08:05:37;;;;;;;9.43;3.63;;;;;;;13.12;100.00;101014.44;5045876;28;20032;-59
2022/05/13 08:08:09;;;;;;;7.57;3.47;;;;;;;13.19;100.00;101021.13;5045144;28;20568;-59
2022/05/13 08:10:36;;;;;;;10.05;4.38;;;;;;;13.27;100.00;101012.81;5044228;28;21000;-59
2022/05/13 08:13:02;;;;;;;6.47;3.35;;;;;;;13.27;100.00;101008.38;5044781;28;20920;-59
2022/05/13 08:15:28;;;;;;;10.55;3.38;;;;;;;13.32;100.00;101010.78;5037655;28;20039;-60
2022/05/13 08:17:53;;;;;;;9.73;4.03;;;;;;;13.34;100.00;101013.34;5009545;28;20029;-59
2022/05/13 08:20:19;;;;;;;5.78;3.22;;;;;;;13.42;100.00;101027.00;5029403;28;20039;-60
2022/05/13 08:22:45;;;;;;;6.97;3.30;;;;;;;13.41;100.00;101020.03;5039661;28;20927;-59
2022/05/13 08:25:11;;;;;;;9.73;4.20;;;;;;;13.40;100.00;101027.09;5040446;28;20020;-59
2022/05/13 08:27:37;;;;;;;7.90;3.30;;;;;;;13.47;100.00;101024.97;5033507;28;20191;-59
2022/05/13 08:30:04;;;;;;;12.95;3.30;;;;;;;13.46;100.00;101017.97;5026237;28;20490;-59
2022/05/13 08:32:29;;;;;;;7.55;2.83;;;;;;;13.58;100.00;101033.19;5030552;28;20107;-59
2022/05/13 08:34:55;;;;;;;13.80;3.30;;;;;;;13.45;100.00;100995.19;5027901;28;20887;-58
2022/05/13 08:37:21;;;;;;;11.20;3.60;;;;;;;13.67;100.00;101006.28;5029187;28;20976;-59
2022/05/13 08:39:46;;;;;;;8.85;3.70;;;;;;;13.94;100.00;101036.53;5028007;28;20050;-59
2022/05/13 08:42:35;;;;;;;9.65;3.10;;;;;;;14.11;100.00;101049.69;5028178;28;20032;-59
2022/05/13 08:45:01;;;;;;;8.68;2.75;;;;;;;14.22;100.00;101042.03;5028841;28;20028;-59
2022/05/13 08:47:56;;;;;;;8.48;2.83;;;;;;;14.27;100.00;101037.31;5040869;28;20031;-59
2022/05/13 08:50:24;;;;;;;10.90;3.40;;;;;;;14.38;100.00;101042.06;5034393;28;20039;-59
2022/05/13 08:53:08;;;;;;;10.35;3.00;;;;;;;14.56;100.00;101041.03;5030760;28;20434;-59
2022/05/13 08:55:50;;;;;;;5.18;2.63;;;;;;;14.80;100.00;101044.91;5028155;28;20025;-59
2022/05/13 08:58:19;;;;;;;8.38;3.40;;;;;;;14.72;100.00;101014.56;5029888;28;20041;-59
2022/05/13 09:00:47;;;;;;;10.70;2.28;;;;;;;15.06;100.00;101046.06;5042582;28;20131;-59
2022/05/13 09:03:45;;;;;;;9.80;3.30;;;;;;;15.03;100.00;101051.56;5064711;28;20862;-59
2022/05/13 09:06:19;;;;;;;7.60;2.92;;;;;;;14.98;100.00;101048.31;5032893;28;20047;-59
2022/05/13 09:08:45;;;;;;;6.05;2.17;;;;;;;15.04;100.00;101063.00;5047865;28;20965;-59
2022/05/13 09:11:34;;;;;;;8.90;3.00;;;;;;;15.13;100.00;101063.31;5043717;28;20035;-59
2022/05/13 09:14:21;;;;;;;8.68;3.25;;;;;;;15.26;100.00;101050.19;5024932;28;20028;-59
2022/05/13 09:17:10;;;;;;;4.88;2.55;;;;;;;15.25;100.00;101017.56;5037599;28;20036;-59
2022/05/13 09:19:37;;;;;;;5.22;1.92;;;;;;;15.53;100.00;101050.38;5039927;28;20043;-59
2022/05/13 09:22:12;;;;;;;6.80;2.42;;;;;;;15.67;100.00;101047.75;5036258;28;20365;-59
2022/05/13 09:24:39;;;;;;;5.25;2.08;;;;;;;15.77;100.00;101048.88;5043682;28;20035;-59
2022/05/13 09:27:04;;;;;;;9.35;2.42;;;;;;;15.77;100.00;101038.28;5046998;28;20994;-59
2022/05/13 09:29:41;;;;;;;8.10;2.08;;;;;;;15.92;100.00;101047.94;5042060;28;20093;-59
2022/05/13 09:32:14;;;;;;;3.50;1.63;;;;;;;15.72;100.00;101013.84;5028683;28;20071;-59
2022/05/13 09:35:31;;;;;;;9.73;2.30;;;;;;;15.86;100.00;101048.31;5035839;28;20032;-58
2022/05/13 09:37:56;;;;;;;4.53;1.80;;;;;;;15.95;100.00;101042.47;5030225;28;20148;-59
2022/05/13 09:40:25;;;;;;;5.45;2.50;;;;;;;16.15;100.00;101050.03;5032187;28;20024;-60
2022/05/13 09:42:55;;;;;;;8.73;2.75;;;;;;;16.15;100.00;101057.13;5027481;28;20033;-60
2022/05/13 09:45:29;;;;;;;6.18;1.90;;;;;;;16.11;100.00;101045.00;5009280;28;20094;-59
2022/05/13 09:48:17;;;;;;;7.05;1.85;;;;;;;16.11;100.00;101048.50;5008602;28;20139;-59
2022/05/13 09:50:51;;;;;;;4.55;1.88;;;;;;;16.06;100.00;101045.28;5027134;28;20063;-60
2022/05/13 09:53:20;;;;;;;5.68;1.98;;;;;;;16.25;100.00;101056.47;5011169;28;20035;-59
2022/05/13 09:55:45;;;;;;;10.23;2.35;;;;;;;16.36;98.63;101043.34;5027719;28;20032;-60
2022/05/13 09:58:21;;;;;;;7.20;2.03;;;;;;;16.60;97.50;101050.72;5009625;28;20036;-60
2022/05/13 10:00:49;;;;;;;9.52;1.92;;;;;;;16.63;96.66;101040.75;5041773;28;20056;-60
2022/05/13 10:03:21;;;;;;;4.97;2.03;;;;;;;16.79;100.00;101030.00;5064694;28;20039;-59
2022/05/13 10:06:09;;;;;;;5.07;1.73;;;;;;;16.93;99.73;101050.34;5046957;28;20318;-60
2022/05/13 10:08:37;;;;;;;5.82;1.88;;;;;;;16.83;96.62;101036.81;5046531;28;20875;-60
2022/05/13 10:14:02;;;;;;;2.75;1.30;;;;;;;17.11;93.13;101041.97;5032555;28;20114;-60
2022/05/13 10:16:45;;;;;;;7.15;2.40;;;;;;;17.31;92.28;101048.59;5046270;28;20839;-60
2022/05/13 10:19:32;;;;;;;4.30;1.63;;;;;;;17.31;91.81;101044.16;5046950;28;20317;-58
2022/05/13 10:22:05;;;;;;;4.28;1.80;;;;;;;17.23;93.34;101049.16;5028331;28;20123;-58
2022/05/13 10:24:33;;;;;;;3.95;1.83;;;;;;;17.11;89.70;101047.28;5046709;28;20032;-59
2022/05/13 10:27:01;;;;;;;6.53;1.58;;;;;;;17.08;88.12;101042.19;5046233;28;20038;-60
2022/05/13 10:29:31;;;;;;;6.70;1.95;;;;;;;17.09;89.28;101041.25;5026184;28;20089;-59
2022/05/13 10:31:57;;;;;;;5.40;1.88;;;;;;;17.01;89.91;101040.91;5045102;28;21027;-59
2022/05/13 10:34:42;;;;;;;4.88;2.42;;;;;;;17.04;87.67;101056.63;5047733;28;20036;-59
2022/05/13 10:37:13;;;;;;;4.40;1.48;;;;;;;17.03;88.23;101054.09;5046850;28;20069;-59
2022/05/13 10:40:09;;;;;;;5.28;1.73;;;;;;;17.20;86.16;101046.66;5046571;28;20028;-59
2022/05/13 10:42:54;;;;;;;4.25;1.65;;;;;;;17.08;86.77;101054.63;5044674;28;20058;-59
2022/05/13 10:45:22;;;;;;;5.10;1.70;;;;;;;17.15;89.08;101042.63;5047254;28;20091;-59
2022/05/13 10:47:55;;;;;;;8.45;2.45;;;;;;;17.19;86.66;101044.97;5037173;28;20036;-58
2022/05/13 10:50:25;;;;;;;4.90;1.63;;;;;;;17.26;89.01;101032.13;5034994;28;20924;-59
2022/05/13 10:53:05;;;;;;;7.63;2.10;;;;;;;17.53;87.32;101058.63;5045250;28;20032;-62
2022/05/13 10:55:42;;;;;;;6.95;2.13;;;;;;;17.87;87.19;101042.09;5039537;28;20171;-59
2022/05/13 10:58:19;;;;;;;3.47;1.50;;;;;;;18.19;86.29;101059.28;5023172;28;20032;-59
2022/05/13 11:00:55;;;;;;;3.00;1.55;;;;;;;18.44;84.49;101052.19;5035759;28;20028;-59
2022/05/13 11:03:30;;;;;;;8.32;1.75;;;;;;;18.63;79.28;101058.75;5034747;28;20028;-58
2022/05/13 11:05:59;;;;;;;3.42;1.60;;;;;;;18.51;77.69;101053.50;5035349;28;20024;-59
2022/05/13 11:08:33;;;;;;;7.60;2.30;;;;;;;18.29;79.06;101065.63;5022599;28;20131;-60
2022/05/13 11:11:39;;;;;;;3.22;1.30;;;;;;;18.14;79.40;101060.56;5037223;28;20129;-59
2022/05/13 11:14:21;;;;;;;5.03;1.50;;;;;;;18.27;78.94;101059.59;5028560;28;20029;-60
2022/05/13 11:17:03;;;;;;;6.65;2.13;;;;;;;18.36;78.27;101053.59;5007519;28;20043;-60
2022/05/13 11:19:38;;;;;;;9.88;2.22;;;;;;;18.32;77.04;101053.91;5043111;28;20568;-60
2022/05/13 11:22:49;;;;;;;4.47;1.48;;;;;;;18.18;76.36;101046.91;5024044;28;20035;-60
2022/05/13 11:28:32;;;;;;;4.38;1.73;;;;;;;18.74;78.16;101039.34;5025092;28;20098;-59
2022/05/13 11:31:10;;;;;;;3.17;1.15;;;;;;;19.32;79.86;101038.50;5026301;28;20139;-60
2022/05/13 11:33:52;;;;;;;7.00;2.13;;;;;;;19.86;75.92;101046.72;5026666;28;20136;-60
2022/05/13 11:36:38;;;;;;;6.22;1.98;;;;;;;20.27;73.95;101046.16;5007242;28;20033;-60
2022/05/13 11:39:03;;;;;;;7.45;2.63;;;;;;;20.27;70.37;101051.50;5025550;28;20028;-60
2022/05/13 11:41:55;;;;;;;3.05;1.52;;;;;;;20.18;70.81;101039.69;5025173;28;20079;-60
2022/05/13 11:44:38;;;;;;;8.88;2.10;;;;;;;21.07;70.60;101042.16;5024110;28;20045;-60
2022/05/13 11:47:14;;;;;;;7.20;2.08;;;;;;;21.71;66.88;101024.19;5043041;28;20144;-60
2022/05/13 11:49:43;;;;;;;8.00;2.25;;;;;;;22.18;63.63;101041.47;5027160;28;20035;-60